sensor_id;sensor_type;location;lat;lon;timestamp;temperature;humidity
10828;DHT22;5467;59.334;13.512;2022-09-21T00:01:57;5.10;99.90
10828;DHT22;5467;59.334;13.512;2022-09-21T00:04:26;5.00;99.90
10828;DHT22;5467;59.334;13.512;2022-09-21T00:06:53;4.90;99.90
10828;DHT22;5467;59.334;13.512;2022-09-21T00:09:19;4.90;99.90
10828;DHT22;5467;59.334;13.512;2022-09-21T00:11:46;4.90;99.90
10828;DHT22;5467;59.334;13.512;2022-09-21T00:14:13;4.90;99.90
10828;DHT22;5467;59.334;13.512;2022-09-21T00:16:41;4.90;99.90
10828;DHT22;5467;59.334;13.512;2022-09-21T00:19:09;4.90;99.90
10828;DHT22;5467;59.334;13.512;2022-09-21T00:21:38;4.90;99.90
10828;DHT22;5467;59.334;13.512;2022-09-21T00:24:05;4.80;99.90
10828;DHT22;5467;59.334;13.512;2022-09-21T00:26:32;4.80;99.90
10828;DHT22;5467;59.334;13.512;2022-09-21T00:29:01;4.80;99.90
10828;DHT22;5467;59.334;13.512;2022-09-21T00:31:30;4.70;99.90
10828;DHT22;5467;59.334;13.512;2022-09-21T00:33:58;4.70;99.90
10828;DHT22;5467;59.334;13.512;2022-09-21T00:36:26;4.60;99.90
10828;DHT22;5467;59.334;13.512;2022-09-21T00:38:57;4.60;99.90
10828;DHT22;5467;59.334;13.512;2022-09-21T00:41:26;4.60;99.90
10828;DHT22;5467;59.334;13.512;2022-09-21T00:44:22;4.60;99.90
10828;DHT22;5467;59.334;13.512;2022-09-21T00:46:51;4.60;99.90
10828;DHT22;5467;59.334;13.512;2022-09-21T00:49:19;4.50;99.90
10828;DHT22;5467;59.334;13.512;2022-09-21T00:51:47;4.40;99.90
10828;DHT22;5467;59.334;13.512;2022-09-21T00:54:20;4.30;99.90
10828;DHT22;5467;59.334;13.512;2022-09-21T00:56:48;4.30;99.90
10828;DHT22;5467;59.334;13.512;2022-09-21T00:59:17;4.40;99.90
10828;DHT22;5467;59.334;13.512;2022-09-21T01:01:44;4.40;99.90
10828;DHT22;5467;59.334;13.512;2022-09-21T01:04:12;4.40;99.90
10828;DHT22;5467;59.334;13.512;2022-09-21T01:06:41;4.30;99.90
10828;DHT22;5467;59.334;13.512;2022-09-21T01:09:09;4.30;99.90
10828;DHT22;5467;59.334;13.512;2022-09-21T01:11:45;4.30;99.90
10828;DHT22;5467;59.334;13.512;2022-09-21T01:17:12;4.30;99.90
10828;DHT22;5467;59.334;13.512;2022-09-21T01:22:42;4.30;99.90
10828;DHT22;5467;59.334;13.512;2022-09-21T01:25:20;4.30;99.90
10828;DHT22;5467;59.334;13.512;2022-09-21T01:28:01;4.20;99.90
10828;DHT22;5467;59.334;13.512;2022-09-21T01:30:35;4.30;99.90
10828;DHT22;5467;59.334;13.512;2022-09-21T01:33:08;4.20;99.90
10828;DHT22;5467;59.334;13.512;2022-09-21T01:35:39;4.20;99.90
10828;DHT22;5467;59.334;13.512;2022-09-21T01:38:09;4.20;99.90
10828;DHT22;5467;59.334;13.512;2022-09-21T01:40:40;4.20;99.90
10828;DHT22;5467;59.334;13.512;2022-09-21T01:43:11;4.20;99.90
10828;DHT22;5467;59.334;13.512;2022-09-21T01:45:45;4.10;99.90
10828;DHT22;5467;59.334;13.512;2022-09-21T01:48:13;4.10;99.90
10828;DHT22;5467;59.334;13.512;2022-09-21T01:50:44;4.10;99.90
10828;DHT22;5467;59.334;13.512;2022-09-21T01:53:15;4.00;99.90
10828;DHT22;5467;59.334;13.512;2022-09-21T01:55:47;4.10;99.90
10828;DHT22;5467;59.334;13.512;2022-09-21T01:58:19;4.10;99.90
10828;DHT22;5467;59.334;13.512;2022-09-21T02:00:53;4.00;99.90
10828;DHT22;5467;59.334;13.512;2022-09-21T02:03:25;4.00;99.90
10828;DHT22;5467;59.334;13.512;2022-09-21T02:05:53;4.00;99.90
10828;DHT22;5467;59.334;13.512;2022-09-21T02:08:22;4.00;99.90
10828;DHT22;5467;59.334;13.512;2022-09-21T02:10:52;4.00;99.90
10828;DHT22;5467;59.334;13.512;2022-09-21T02:13:23;4.10;99.90
10828;DHT22;5467;59.334;13.512;2022-09-21T02:16:04;4.10;99.90
10828;DHT22;5467;59.334;13.512;2022-09-21T02:18:42;4.20;99.90
10828;DHT22;5467;59.334;13.512;2022-09-21T02:21:20;4.20;99.90
10828;DHT22;5467;59.334;13.512;2022-09-21T02:23:55;4.20;99.90
10828;DHT22;5467;59.334;13.512;2022-09-21T02:26:28;4.20;99.90
10828;DHT22;5467;59.334;13.512;2022-09-21T02:29:06;4.20;99.90
10828;DHT22;5467;59.334;13.512;2022-09-21T02:31:43;4.20;99.90
10828;DHT22;5467;59.334;13.512;2022-09-21T02:34:17;4.20;99.90
10828;DHT22;5467;59.334;13.512;2022-09-21T02:36:48;4.30;99.90
10828;DHT22;5467;59.334;13.512;2022-09-21T02:39:20;4.40;99.90
10828;DHT22;5467;59.334;13.512;2022-09-21T02:41:55;4.40;99.90
10828;DHT22;5467;59.334;13.512;2022-09-21T02:44:29;4.50;99.90
10828;DHT22;5467;59.334;13.512;2022-09-21T02:47:03;4.50;99.90
10828;DHT22;5467;59.334;13.512;2022-09-21T02:49:37;4.50;99.90
10828;DHT22;5467;59.334;13.512;2022-09-21T02:52:10;4.50;99.90
10828;DHT22;5467;59.334;13.512;2022-09-21T02:54:39;4.50;99.90
10828;DHT22;5467;59.334;13.512;2022-09-21T02:57:07;4.50;99.90
10828;DHT22;5467;59.334;13.512;2022-09-21T02:59:37;4.50;99.90
10828;DHT22;5467;59.334;13.512;2022-09-21T03:02:06;4.40;99.90
10828;DHT22;5467;59.334;13.512;2022-09-21T03:04:33;4.40;99.90
10828;DHT22;5467;59.334;13.512;2022-09-21T03:07:01;4.40;99.90
10828;DHT22;5467;59.334;13.512;2022-09-21T03:09:28;4.30;99.90
10828;DHT22;5467;59.334;13.512;2022-09-21T03:11:55;4.30;99.90
10828;DHT22;5467;59.334;13.512;2022-09-21T03:14:22;4.20;99.90
10828;DHT22;5467;59.334;13.512;2022-09-21T03:16:49;4.20;99.90
10828;DHT22;5467;59.334;13.512;2022-09-21T03:19:17;4.10;99.90
10828;DHT22;5467;59.334;13.512;2022-09-21T03:21:44;4.00;99.90
10828;DHT22;5467;59.334;13.512;2022-09-21T03:24:11;4.00;99.90
10828;DHT22;5467;59.334;13.512;2022-09-21T03:26:58;4.00;99.90
10828;DHT22;5467;59.334;13.512;2022-09-21T03:29:25;4.00;99.90
10828;DHT22;5467;59.334;13.512;2022-09-21T03:31:52;3.90;99.90
10828;DHT22;5467;59.334;13.512;2022-09-21T03:34:22;3.90;99.90
10828;DHT22;5467;59.334;13.512;2022-09-21T03:36:48;3.90;99.90
10828;DHT22;5467;59.334;13.512;2022-09-21T03:39:15;3.90;99.90
10828;DHT22;5467;59.334;13.512;2022-09-21T03:41:42;3.80;99.90
10828;DHT22;5467;59.334;13.512;2022-09-21T03:44:09;3.80;99.90
10828;DHT22;5467;59.334;13.512;2022-09-21T03:46:37;3.80;99.90
10828;DHT22;5467;59.334;13.512;2022-09-21T03:49:04;3.80;99.90
10828;DHT22;5467;59.334;13.512;2022-09-21T03:51:32;3.70;99.90
10828;DHT22;5467;59.334;13.512;2022-09-21T03:53:59;3.80;99.90
10828;DHT22;5467;59.334;13.512;2022-09-21T03:56:26;3.80;99.90
10828;DHT22;5467;59.334;13.512;2022-09-21T03:58:53;3.80;99.90
10828;DHT22;5467;59.334;13.512;2022-09-21T04:01:20;3.70;99.90
10828;DHT22;5467;59.334;13.512;2022-09-21T04:03:47;3.70;99.90
10828;DHT22;5467;59.334;13.512;2022-09-21T04:06:14;3.70;99.90
10828;DHT22;5467;59.334;13.512;2022-09-21T04:08:42;3.70;99.90
10828;DHT22;5467;59.334;13.512;2022-09-21T04:11:09;3.70;99.90
10828;DHT22;5467;59.334;13.512;2022-09-21T04:13:37;3.60;99.90
10828;DHT22;5467;59.334;13.512;2022-09-21T04:16:04;3.50;99.90
10828;DHT22;5467;59.334;13.512;2022-09-21T04:18:32;3.50;99.90
10828;DHT22;5467;59.334;13.512;2022-09-21T04:20:59;3.50;99.90
10828;DHT22;5467;59.334;13.512;2022-09-21T04:23:26;3.50;99.90
10828;DHT22;5467;59.334;13.512;2022-09-21T04:25:54;3.60;99.90
10828;DHT22;5467;59.334;13.512;2022-09-21T04:28:22;3.50;99.90
10828;DHT22;5467;59.334;13.512;2022-09-21T04:30:51;3.50;99.90
10828;DHT22;5467;59.334;13.512;2022-09-21T04:33:18;3.40;99.90
10828;DHT22;5467;59.334;13.512;2022-09-21T04:35:53;3.40;99.90
10828;DHT22;5467;59.334;13.512;2022-09-21T04:38:20;3.40;99.90
10828;DHT22;5467;59.334;13.512;2022-09-21T04:40:55;3.30;99.90
10828;DHT22;5467;59.334;13.512;2022-09-21T04:43:22;3.30;99.90
10828;DHT22;5467;59.334;13.512;2022-09-21T04:45:49;3.30;99.90
10828;DHT22;5467;59.334;13.512;2022-09-21T04:48:16;3.20;99.90
10828;DHT22;5467;59.334;13.512;2022-09-21T04:50:43;3.20;99.90
10828;DHT22;5467;59.334;13.512;2022-09-21T04:53:13;3.20;99.90
10828;DHT22;5467;59.334;13.512;2022-09-21T04:55:40;3.20;99.90
10828;DHT22;5467;59.334;13.512;2022-09-21T04:58:09;3.20;99.90
10828;DHT22;5467;59.334;13.512;2022-09-21T05:00:36;3.20;99.90
10828;DHT22;5467;59.334;13.512;2022-09-21T05:03:03;3.20;99.90
10828;DHT22;5467;59.334;13.512;2022-09-21T05:05:29;3.20;99.90
10828;DHT22;5467;59.334;13.512;2022-09-21T05:07:57;3.20;99.90
10828;DHT22;5467;59.334;13.512;2022-09-21T05:10:24;3.20;99.90
10828;DHT22;5467;59.334;13.512;2022-09-21T05:12:50;3.20;99.90
10828;DHT22;5467;59.334;13.512;2022-09-21T05:15:19;3.20;99.90
10828;DHT22;5467;59.334;13.512;2022-09-21T05:17:46;3.20;99.90
10828;DHT22;5467;59.334;13.512;2022-09-21T05:20:13;3.20;99.90
10828;DHT22;5467;59.334;13.512;2022-09-21T05:22:40;3.30;99.90
10828;DHT22;5467;59.334;13.512;2022-09-21T05:25:08;3.40;99.90
10828;DHT22;5467;59.334;13.512;2022-09-21T05:27:35;3.50;99.90
10828;DHT22;5467;59.334;13.512;2022-09-21T05:30:04;3.50;99.90
10828;DHT22;5467;59.334;13.512;2022-09-21T05:32:41;3.50;99.90
10828;DHT22;5467;59.334;13.512;2022-09-21T05:35:18;3.70;99.90
10828;DHT22;5467;59.334;13.512;2022-09-21T05:37:52;3.70;99.90
10828;DHT22;5467;59.334;13.512;2022-09-21T05:40:23;3.80;99.90
10828;DHT22;5467;59.334;13.512;2022-09-21T05:42:51;3.80;99.90
10828;DHT22;5467;59.334;13.512;2022-09-21T05:45:18;3.80;99.90
10828;DHT22;5467;59.334;13.512;2022-09-21T05:48:01;3.80;99.90
10828;DHT22;5467;59.334;13.512;2022-09-21T05:50:40;3.80;99.90
10828;DHT22;5467;59.334;13.512;2022-09-21T05:56:01;3.90;99.90
10828;DHT22;5467;59.334;13.512;2022-09-21T05:58:35;4.00;99.90
10828;DHT22;5467;59.334;13.512;2022-09-21T06:01:15;4.00;99.90
10828;DHT22;5467;59.334;13.512;2022-09-21T06:03:48;4.10;99.90
10828;DHT22;5467;59.334;13.512;2022-09-21T06:06:15;4.10;99.90
10828;DHT22;5467;59.334;13.512;2022-09-21T06:08:42;4.10;99.90
10828;DHT22;5467;59.334;13.512;2022-09-21T06:11:09;4.20;99.90
10828;DHT22;5467;59.334;13.512;2022-09-21T06:13:37;4.20;99.90
10828;DHT22;5467;59.334;13.512;2022-09-21T06:16:06;4.40;99.90
10828;DHT22;5467;59.334;13.512;2022-09-21T06:18:36;4.50;99.90
10828;DHT22;5467;59.334;13.512;2022-09-21T06:21:05;4.60;99.90
10828;DHT22;5467;59.334;13.512;2022-09-21T06:23:32;4.80;99.90
10828;DHT22;5467;59.334;13.512;2022-09-21T06:25:59;4.80;99.90
10828;DHT22;5467;59.334;13.512;2022-09-21T06:28:27;4.90;99.90
10828;DHT22;5467;59.334;13.512;2022-09-21T06:30:55;5.00;99.90
10828;DHT22;5467;59.334;13.512;2022-09-21T06:33:22;5.10;99.90
10828;DHT22;5467;59.334;13.512;2022-09-21T06:35:53;5.20;99.90
10828;DHT22;5467;59.334;13.512;2022-09-21T06:38:22;5.30;99.90
10828;DHT22;5467;59.334;13.512;2022-09-21T06:40:49;5.40;99.90
10828;DHT22;5467;59.334;13.512;2022-09-21T06:43:17;5.50;99.90
10828;DHT22;5467;59.334;13.512;2022-09-21T06:45:52;5.60;99.90
10828;DHT22;5467;59.334;13.512;2022-09-21T06:48:19;5.60;99.90
10828;DHT22;5467;59.334;13.512;2022-09-21T06:50:47;5.70;99.90
10828;DHT22;5467;59.334;13.512;2022-09-21T06:53:14;5.80;99.90
10828;DHT22;5467;59.334;13.512;2022-09-21T06:55:43;5.90;99.90
10828;DHT22;5467;59.334;13.512;2022-09-21T06:58:10;6.00;99.90
10828;DHT22;5467;59.334;13.512;2022-09-21T07:00:37;6.10;99.90
10828;DHT22;5467;59.334;13.512;2022-09-21T07:03:04;6.10;99.90
10828;DHT22;5467;59.334;13.512;2022-09-21T07:05:31;6.30;99.90
10828;DHT22;5467;59.334;13.512;2022-09-21T07:07:58;6.40;99.90
10828;DHT22;5467;59.334;13.512;2022-09-21T07:10:25;6.40;99.90
10828;DHT22;5467;59.334;13.512;2022-09-21T07:12:53;6.50;99.90
10828;DHT22;5467;59.334;13.512;2022-09-21T07:15:20;6.60;99.90
10828;DHT22;5467;59.334;13.512;2022-09-21T07:17:48;6.70;99.90
10828;DHT22;5467;59.334;13.512;2022-09-21T07:20:15;6.80;99.90
10828;DHT22;5467;59.334;13.512;2022-09-21T07:22:42;6.90;99.90
10828;DHT22;5467;59.334;13.512;2022-09-21T07:25:09;7.10;99.90
10828;DHT22;5467;59.334;13.512;2022-09-21T07:27:36;7.30;99.90
10828;DHT22;5467;59.334;13.512;2022-09-21T07:30:06;7.30;99.90
10828;DHT22;5467;59.334;13.512;2022-09-21T07:32:34;7.50;99.90
10828;DHT22;5467;59.334;13.512;2022-09-21T07:35:02;7.50;99.90
10828;DHT22;5467;59.334;13.512;2022-09-21T07:37:30;7.40;99.90
10828;DHT22;5467;59.334;13.512;2022-09-21T07:39:57;7.70;99.90
10828;DHT22;5467;59.334;13.512;2022-09-21T07:42:27;7.70;99.90
10828;DHT22;5467;59.334;13.512;2022-09-21T07:44:54;7.80;99.90
10828;DHT22;5467;59.334;13.512;2022-09-21T07:47:24;8.00;99.90
10828;DHT22;5467;59.334;13.512;2022-09-21T07:49:51;7.90;99.90
10828;DHT22;5467;59.334;13.512;2022-09-21T07:52:18;7.90;99.90
10828;DHT22;5467;59.334;13.512;2022-09-21T07:54:45;8.10;99.90
10828;DHT22;5467;59.334;13.512;2022-09-21T07:57:12;8.30;99.90
10828;DHT22;5467;59.334;13.512;2022-09-21T07:59:57;8.40;99.90
10828;DHT22;5467;59.334;13.512;2022-09-21T08:02:25;8.50;99.90
10828;DHT22;5467;59.334;13.512;2022-09-21T08:04:52;8.50;99.90
10828;DHT22;5467;59.334;13.512;2022-09-21T08:07:20;8.60;99.90
10828;DHT22;5467;59.334;13.512;2022-09-21T08:09:47;8.70;99.90
10828;DHT22;5467;59.334;13.512;2022-09-21T08:12:16;8.90;99.90
10828;DHT22;5467;59.334;13.512;2022-09-21T08:14:43;9.20;99.90
10828;DHT22;5467;59.334;13.512;2022-09-21T08:17:10;9.40;99.90
10828;DHT22;5467;59.334;13.512;2022-09-21T08:19:39;9.70;99.90
10828;DHT22;5467;59.334;13.512;2022-09-21T08:22:06;10.10;99.90
10828;DHT22;5467;59.334;13.512;2022-09-21T08:24:33;10.30;99.90
10828;DHT22;5467;59.334;13.512;2022-09-21T08:27:00;10.70;99.90
10828;DHT22;5467;59.334;13.512;2022-09-21T08:29:27;11.00;99.90
10828;DHT22;5467;59.334;13.512;2022-09-21T08:31:55;11.30;99.90
10828;DHT22;5467;59.334;13.512;2022-09-21T08:34:22;11.40;99.90
10828;DHT22;5467;59.334;13.512;2022-09-21T08:36:52;11.70;99.90
10828;DHT22;5467;59.334;13.512;2022-09-21T08:39:19;11.80;99.90
10828;DHT22;5467;59.334;13.512;2022-09-21T08:41:59;11.90;99.90
10828;DHT22;5467;59.334;13.512;2022-09-21T08:44:31;12.10;99.90
10828;DHT22;5467;59.334;13.512;2022-09-21T08:47:07;12.20;99.90
10828;DHT22;5467;59.334;13.512;2022-09-21T08:49:35;12.30;99.90
10828;DHT22;5467;59.334;13.512;2022-09-21T08:52:08;12.60;99.90
10828;DHT22;5467;59.334;13.512;2022-09-21T08:54:41;12.70;99.90
10828;DHT22;5467;59.334;13.512;2022-09-21T08:57:11;12.70;99.90
10828;DHT22;5467;59.334;13.512;2022-09-21T08:59:42;12.50;99.90
10828;DHT22;5467;59.334;13.512;2022-09-21T09:02:30;12.30;99.90
10828;DHT22;5467;59.334;13.512;2022-09-21T09:05:02;12.30;99.90
10828;DHT22;5467;59.334;13.512;2022-09-21T09:07:53;12.80;99.90
10828;DHT22;5467;59.334;13.512;2022-09-21T09:10:35;13.10;99.90
10828;DHT22;5467;59.334;13.512;2022-09-21T09:13:14;13.30;99.90
10828;DHT22;5467;59.334;13.512;2022-09-21T09:15:56;13.40;99.90
10828;DHT22;5467;59.334;13.512;2022-09-21T09:18:34;13.60;99.90
10828;DHT22;5467;59.334;13.512;2022-09-21T09:21:09;13.70;99.90
10828;DHT22;5467;59.334;13.512;2022-09-21T09:23:42;14.10;99.90
10828;DHT22;5467;59.334;13.512;2022-09-21T09:26:17;14.50;99.90
10828;DHT22;5467;59.334;13.512;2022-09-21T09:28:49;14.90;99.90
10828;DHT22;5467;59.334;13.512;2022-09-21T09:31:20;14.80;99.90
10828;DHT22;5467;59.334;13.512;2022-09-21T09:33:52;14.50;99.90
10828;DHT22;5467;59.334;13.512;2022-09-21T09:36:21;14.60;99.90
10828;DHT22;5467;59.334;13.512;2022-09-21T09:38:55;14.60;99.90
10828;DHT22;5467;59.334;13.512;2022-09-21T09:41:54;14.80;99.90
10828;DHT22;5467;59.334;13.512;2022-09-21T09:44:37;14.80;99.90
10828;DHT22;5467;59.334;13.512;2022-09-21T09:47:18;15.10;99.90
10828;DHT22;5467;59.334;13.512;2022-09-21T09:49:57;15.30;99.90
10828;DHT22;5467;59.334;13.512;2022-09-21T09:52:26;15.40;99.90
10828;DHT22;5467;59.334;13.512;2022-09-21T09:54:54;15.40;99.90
10828;DHT22;5467;59.334;13.512;2022-09-21T09:57:27;15.60;99.90
10828;DHT22;5467;59.334;13.512;2022-09-21T09:59:57;15.70;99.90
10828;DHT22;5467;59.334;13.512;2022-09-21T10:02:26;15.80;99.90
10828;DHT22;5467;59.334;13.512;2022-09-21T10:04:55;15.80;99.90
10828;DHT22;5467;59.334;13.512;2022-09-21T10:07:36;15.80;99.90
10828;DHT22;5467;59.334;13.512;2022-09-21T10:10:22;16.00;99.90
10828;DHT22;5467;59.334;13.512;2022-09-21T10:12:51;15.90;99.90
10828;DHT22;5467;59.334;13.512;2022-09-21T10:15:19;15.90;99.90
10828;DHT22;5467;59.334;13.512;2022-09-21T10:17:56;15.90;99.90
10828;DHT22;5467;59.334;13.512;2022-09-21T10:20:24;16.00;99.90
10828;DHT22;5467;59.334;13.512;2022-09-21T10:22:53;15.60;99.90
10828;DHT22;5467;59.334;13.512;2022-09-21T10:25:23;15.50;99.90
10828;DHT22;5467;59.334;13.512;2022-09-21T10:27:50;15.60;99.90
10828;DHT22;5467;59.334;13.512;2022-09-21T10:30:35;15.90;99.90
10828;DHT22;5467;59.334;13.512;2022-09-21T10:33:06;16.00;99.90
10828;DHT22;5467;59.334;13.512;2022-09-21T10:35:48;15.90;99.90
10828;DHT22;5467;59.334;13.512;2022-09-21T10:38:18;15.90;99.90
10828;DHT22;5467;59.334;13.512;2022-09-21T10:40:47;15.80;99.90
10828;DHT22;5467;59.334;13.512;2022-09-21T10:43:23;15.90;99.90
10828;DHT22;5467;59.334;13.512;2022-09-21T10:45:53;15.90;99.90
10828;DHT22;5467;59.334;13.512;2022-09-21T10:48:22;16.10;99.90
10828;DHT22;5467;59.334;13.512;2022-09-21T10:50:51;16.30;99.90
10828;DHT22;5467;59.334;13.512;2022-09-21T10:53:23;16.40;99.90
10828;DHT22;5467;59.334;13.512;2022-09-21T10:55:57;16.60;99.90
10828;DHT22;5467;59.334;13.512;2022-09-21T10:58:25;16.50;99.90
10828;DHT22;5467;59.334;13.512;2022-09-21T11:00:54;16.50;99.90
10828;DHT22;5467;59.334;13.512;2022-09-21T11:03:38;16.40;99.90
10828;DHT22;5467;59.334;13.512;2022-09-21T11:06:12;16.20;99.90
10828;DHT22;5467;59.334;13.512;2022-09-21T11:08:45;16.20;99.90
10828;DHT22;5467;59.334;13.512;2022-09-21T11:11:36;16.20;99.90
10828;DHT22;5467;59.334;13.512;2022-09-21T11:14:12;16.20;99.90
10828;DHT22;5467;59.334;13.512;2022-09-21T11:16:46;16.40;99.90
10828;DHT22;5467;59.334;13.512;2022-09-21T11:19:22;16.50;99.90
10828;DHT22;5467;59.334;13.512;2022-09-21T11:21:56;16.50;99.90
10828;DHT22;5467;59.334;13.512;2022-09-21T11:24:31;16.50;99.90
10828;DHT22;5467;59.334;13.512;2022-09-21T11:27:07;16.50;99.90
10828;DHT22;5467;59.334;13.512;2022-09-21T11:29:41;16.60;99.90
10828;DHT22;5467;59.334;13.512;2022-09-21T11:32:28;16.70;99.90
10828;DHT22;5467;59.334;13.512;2022-09-21T11:38:03;16.70;99.90
10828;DHT22;5467;59.334;13.512;2022-09-21T11:40:53;16.80;99.90
10828;DHT22;5467;59.334;13.512;2022-09-21T11:43:44;16.80;99.90
10828;DHT22;5467;59.334;13.512;2022-09-21T11:46:22;16.70;99.90
10828;DHT22;5467;59.334;13.512;2022-09-21T11:49:02;16.70;99.90
10828;DHT22;5467;59.334;13.512;2022-09-21T11:51:48;16.50;99.90
10828;DHT22;5467;59.334;13.512;2022-09-21T11:54:40;16.40;99.90
10828;DHT22;5467;59.334;13.512;2022-09-21T11:57:16;16.30;99.90
10828;DHT22;5467;59.334;13.512;2022-09-21T12:00:03;16.20;99.90
10828;DHT22;5467;59.334;13.512;2022-09-21T12:05:30;16.20;99.90
10828;DHT22;5467;59.334;13.512;2022-09-21T12:08:14;16.30;99.90
10828;DHT22;5467;59.334;13.512;2022-09-21T12:10:54;16.40;99.90
10828;DHT22;5467;59.334;13.512;2022-09-21T12:13:32;16.30;99.90
10828;DHT22;5467;59.334;13.512;2022-09-21T12:16:08;16.30;99.90
10828;DHT22;5467;59.334;13.512;2022-09-21T12:18:43;16.50;99.90
10828;DHT22;5467;59.334;13.512;2022-09-21T12:21:16;16.40;99.90
10828;DHT22;5467;59.334;13.512;2022-09-21T12:23:47;16.50;99.90
10828;DHT22;5467;59.334;13.512;2022-09-21T12:26:19;15.90;99.90
10828;DHT22;5467;59.334;13.512;2022-09-21T12:28:51;15.90;99.90
10828;DHT22;5467;59.334;13.512;2022-09-21T12:31:23;15.90;99.90
10828;DHT22;5467;59.334;13.512;2022-09-21T12:33:54;15.90;99.90
10828;DHT22;5467;59.334;13.512;2022-09-21T12:36:26;16.10;99.90
10828;DHT22;5467;59.334;13.512;2022-09-21T12:38:58;16.30;99.90
10828;DHT22;5467;59.334;13.512;2022-09-21T12:41:33;16.40;99.90
10828;DHT22;5467;59.334;13.512;2022-09-21T12:44:09;16.60;99.90
10828;DHT22;5467;59.334;13.512;2022-09-21T12:46:44;16.50;99.90
10828;DHT22;5467;59.334;13.512;2022-09-21T12:49:16;16.50;99.90
10828;DHT22;5467;59.334;13.512;2022-09-21T12:51:48;16.40;99.90
10828;DHT22;5467;59.334;13.512;2022-09-21T12:54:22;16.40;99.90
10828;DHT22;5467;59.334;13.512;2022-09-21T12:56:57;16.30;99.90
10828;DHT22;5467;59.334;13.512;2022-09-21T12:59:34;16.30;99.90
10828;DHT22;5467;59.334;13.512;2022-09-21T13:02:14;16.10;99.90
10828;DHT22;5467;59.334;13.512;2022-09-21T13:04:56;16.00;99.90
10828;DHT22;5467;59.334;13.512;2022-09-21T13:10:39;15.90;99.90
10828;DHT22;5467;59.334;13.512;2022-09-21T13:13:16;15.70;99.90
10828;DHT22;5467;59.334;13.512;2022-09-21T13:15:46;15.70;99.90
10828;DHT22;5467;59.334;13.512;2022-09-21T13:18:33;15.80;99.90
10828;DHT22;5467;59.334;13.512;2022-09-21T13:21:14;15.90;99.90
10828;DHT22;5467;59.334;13.512;2022-09-21T13:23:41;16.00;99.90
10828;DHT22;5467;59.334;13.512;2022-09-21T13:26:10;16.00;99.90
10828;DHT22;5467;59.334;13.512;2022-09-21T13:29:23;16.10;99.90
10828;DHT22;5467;59.334;13.512;2022-09-21T13:31:54;16.10;99.90
10828;DHT22;5467;59.334;13.512;2022-09-21T13:34:28;15.90;99.90
10828;DHT22;5467;59.334;13.512;2022-09-21T13:37:23;16.10;99.90
10828;DHT22;5467;59.334;13.512;2022-09-21T13:43:23;15.90;99.90
10828;DHT22;5467;59.334;13.512;2022-09-21T13:45:55;15.90;99.90
10828;DHT22;5467;59.334;13.512;2022-09-21T13:48:25;16.00;99.90
10828;DHT22;5467;59.334;13.512;2022-09-21T13:51:00;15.90;99.90
10828;DHT22;5467;59.334;13.512;2022-09-21T13:53:38;15.90;99.90
10828;DHT22;5467;59.334;13.512;2022-09-21T13:56:14;15.90;99.90
10828;DHT22;5467;59.334;13.512;2022-09-21T13:58:44;16.00;99.90
10828;DHT22;5467;59.334;13.512;2022-09-21T14:01:15;15.80;99.90
10828;DHT22;5467;59.334;13.512;2022-09-21T14:03:45;15.70;99.90
10828;DHT22;5467;59.334;13.512;2022-09-21T14:06:16;15.70;99.90
10828;DHT22;5467;59.334;13.512;2022-09-21T14:08:49;15.80;99.90
10828;DHT22;5467;59.334;13.512;2022-09-21T14:11:22;15.80;99.90
10828;DHT22;5467;59.334;13.512;2022-09-21T14:14:03;15.40;99.90
10828;DHT22;5467;59.334;13.512;2022-09-21T14:16:51;15.40;99.90
10828;DHT22;5467;59.334;13.512;2022-09-21T14:22:44;15.20;99.90
10828;DHT22;5467;59.334;13.512;2022-09-21T14:28:11;15.40;99.90
10828;DHT22;5467;59.334;13.512;2022-09-21T14:30:39;15.30;99.90
10828;DHT22;5467;59.334;13.512;2022-09-21T14:33:23;15.30;99.90
10828;DHT22;5467;59.334;13.512;2022-09-21T14:35:53;15.30;99.90
10828;DHT22;5467;59.334;13.512;2022-09-21T14:38:26;15.30;99.90
10828;DHT22;5467;59.334;13.512;2022-09-21T14:40:58;15.40;99.90
10828;DHT22;5467;59.334;13.512;2022-09-21T14:43:29;15.40;99.90
10828;DHT22;5467;59.334;13.512;2022-09-21T14:46:16;15.30;99.90
10828;DHT22;5467;59.334;13.512;2022-09-21T14:48:54;15.10;99.90
10828;DHT22;5467;59.334;13.512;2022-09-21T14:51:31;15.20;99.90
10828;DHT22;5467;59.334;13.512;2022-09-21T14:54:19;15.20;99.90
10828;DHT22;5467;59.334;13.512;2022-09-21T14:57:14;15.20;99.90
10828;DHT22;5467;59.334;13.512;2022-09-21T15:00:12;15.10;99.90
10828;DHT22;5467;59.334;13.512;2022-09-21T15:02:41;15.10;99.90
10828;DHT22;5467;59.334;13.512;2022-09-21T15:05:25;15.10;99.90
10828;DHT22;5467;59.334;13.512;2022-09-21T15:08:08;15.10;99.90
10828;DHT22;5467;59.334;13.512;2022-09-21T15:11:01;15.10;99.90
10828;DHT22;5467;59.334;13.512;2022-09-21T15:13:47;15.00;99.90
10828;DHT22;5467;59.334;13.512;2022-09-21T15:16:24;15.00;99.90
10828;DHT22;5467;59.334;13.512;2022-09-21T15:19:01;14.90;99.90
10828;DHT22;5467;59.334;13.512;2022-09-21T15:21:31;14.80;99.90
10828;DHT22;5467;59.334;13.512;2022-09-21T15:24:01;14.70;99.90
10828;DHT22;5467;59.334;13.512;2022-09-21T15:26:37;14.70;99.90
10828;DHT22;5467;59.334;13.512;2022-09-21T15:29:05;14.60;99.90
10828;DHT22;5467;59.334;13.512;2022-09-21T15:31:34;14.50;99.90
10828;DHT22;5467;59.334;13.512;2022-09-21T15:34:03;14.50;99.90
10828;DHT22;5467;59.334;13.512;2022-09-21T15:36:35;14.50;99.90
10828;DHT22;5467;59.334;13.512;2022-09-21T15:39:03;14.40;99.90
10828;DHT22;5467;59.334;13.512;2022-09-21T15:41:39;14.40;99.90
10828;DHT22;5467;59.334;13.512;2022-09-21T15:44:13;14.20;99.90
10828;DHT22;5467;59.334;13.512;2022-09-21T15:46:42;14.20;99.90
10828;DHT22;5467;59.334;13.512;2022-09-21T15:49:11;14.20;99.90
10828;DHT22;5467;59.334;13.512;2022-09-21T15:51:41;14.10;99.90
10828;DHT22;5467;59.334;13.512;2022-09-21T15:54:23;14.00;99.90
10828;DHT22;5467;59.334;13.512;2022-09-21T15:56:53;13.90;99.90
10828;DHT22;5467;59.334;13.512;2022-09-21T15:59:20;13.80;99.90
10828;DHT22;5467;59.334;13.512;2022-09-21T16:01:49;13.80;99.90
10828;DHT22;5467;59.334;13.512;2022-09-21T16:04:20;13.70;99.90
10828;DHT22;5467;59.334;13.512;2022-09-21T16:06:56;13.60;99.90
10828;DHT22;5467;59.334;13.512;2022-09-21T16:09:38;13.50;99.90
10828;DHT22;5467;59.334;13.512;2022-09-21T16:12:30;13.50;99.90
10828;DHT22;5467;59.334;13.512;2022-09-21T16:14:59;13.40;99.90
10828;DHT22;5467;59.334;13.512;2022-09-21T16:17:28;13.30;99.90
10828;DHT22;5467;59.334;13.512;2022-09-21T16:20:15;13.20;99.90
10828;DHT22;5467;59.334;13.512;2022-09-21T16:22:46;13.10;99.90
10828;DHT22;5467;59.334;13.512;2022-09-21T16:25:22;13.00;99.90
10828;DHT22;5467;59.334;13.512;2022-09-21T16:27:52;13.00;99.90
10828;DHT22;5467;59.334;13.512;2022-09-21T16:30:38;12.90;99.90
10828;DHT22;5467;59.334;13.512;2022-09-21T16:33:36;12.70;99.90
10828;DHT22;5467;59.334;13.512;2022-09-21T16:36:39;12.60;99.90
10828;DHT22;5467;59.334;13.512;2022-09-21T16:39:12;12.60;99.90